• Join FlightAware (Why Join?)
  • Login
  • US Flag 
06:18PM EDT


 

Airport Tracker/Info


-or-


 

Live Flight TrackerFlight Track Log ✈ UAL1202 ✈ 29-Jul-2013 ✈ KSFO - KSEA

Flight Track Log - Related Links

Times and Time Zones

All times are in EDT time to prevent confusion due to time zone crossing. See the UAL1202 flight status page for this flight to view local times or setup timezone preferences in your user account.

Time Position Orientation Groundspeed Altitude Reporting Facility
EDT Latitude Longitude Course Direction KTS MPH feet Rate Location/Type
07:51PM 37.6100 -122.3790 58° Northeast 100 115  Level FlightAware
07:51PM 37.6100 -122.3780 90° East 100 115 240 Level FlightAware
07:51PM 37.6240 -122.3700 24° Northeast 187 215 100 1,380 Climbing FlightAware
07:52PM 37.6286 -122.3660 35° Northeast 180 207 600 4,500 Climbing FlightAware ADS-B
07:52PM 37.6322 -122.3620 41° Northeast 183 211 1,000 4,260 Climbing FlightAware ADS-B
07:52PM 37.6377 -122.3560 41° Northeast 182 209 1,600 3,360 Climbing FlightAware ADS-B
07:52PM 37.6466 -122.3450 44° Northeast 192 221 2,300 2,460 Climbing FlightAware ADS-B
07:52PM 37.6577 -122.3320 43° Northeast 205 236 2,900 2,100 Climbing FlightAware ADS-B
07:52PM 37.6600 -122.3290 46° Northeast 208 239 3,000 2,280 Climbing FlightAware ADS-B
07:53PM 37.6670 -122.3210 42° Northeast 214 246 3,400 2,220 Climbing FlightAware ADS-B
07:53PM 37.6788 -122.3050 47° Northeast 231 266 4,000 2,100 Climbing FlightAware ADS-B
07:53PM 37.6897 -122.2900 47° Northeast 245 282 4,500 2,280 Climbing FlightAware ADS-B
07:53PM 37.7026 -122.2730 46° Northeast 258 297 5,200 2,040 Climbing FlightAware ADS-B
07:54PM 37.7158 -122.2550 47° Northeast 279 321 5,600 2,460 Climbing FlightAware ADS-B
07:54PM 37.7328 -122.2330 46° Northeast 286 329 6,600 3,180 Climbing FlightAware ADS-B
07:54PM 37.7449 -122.2170 46° Northeast 288 331 7,300 3,120 Climbing FlightAware ADS-B
07:54PM 37.7563 -122.2030 44° Northeast 289 333 7,900 3,180 Climbing FlightAware ADS-B
07:54PM 37.7606 -122.1990 36° Northeast 291 335 8,100 3,000 Climbing FlightAware ADS-B
07:54PM 37.7662 -122.1950 29° Northeast 293 337 8,300 2,400 Climbing FlightAware ADS-B
07:55PM 37.7727 -122.1920 20° North 296 341 8,500 1,980 Climbing FlightAware ADS-B
07:55PM 37.7777 -122.1910 North 298 343 8,600 2,760 Climbing FlightAware ADS-B
07:55PM 37.7901 -122.1900 North 299 344 9,100 3,180 Climbing FlightAware ADS-B
07:55PM 37.7955 -122.1900 360° North 300 345 9,300 2,880 Climbing FlightAware ADS-B
07:55PM 37.8250 -122.1900 360° North 307 353 10,300 1,740 Climbing FlightAware ADS-B
07:56PM 37.8714 -122.1920 358° North 349 402 10,800 1,260 Climbing FlightAware ADS-B
07:56PM 37.9239 -122.1930 359° North 379 436 11,600 2,100 Climbing FlightAware ADS-B
07:57PM 37.9840 -122.1940 359° North 390 449 13,100 2,760 Climbing FlightAware ADS-B
07:57PM 38.0508 -122.1950 359° North 390 449 14,900 2,640 Climbing FlightAware ADS-B
07:58PM 38.1062 -122.1960 359° North 401 461 16,100 2,160 Climbing FlightAware ADS-B
07:59PM 38.1873 -122.1980 359° North 406 467 17,600 2,220 Climbing FlightAware ADS-B
07:59PM 38.2770 -122.2000 359° North 427 491 19,400 2,280 Climbing FlightAware
08:00PM 38.3530 -122.2020 359° North 436 502 20,800 2,040 Climbing FlightAware
08:01PM 38.4150 -122.2030 359° North 445 512 21,800 1,920 Climbing FlightAware
08:01PM 38.4940 -122.2040 359° North 456 525 23,000 1,860 Climbing FlightAware
08:01PM 38.5360 -122.2050 359° North 462 532 23,600 1,800 Climbing FlightAware
08:02PM 38.6380 -122.2070 359° North 469 540 25,100 1,740 Climbing FlightAware
08:03PM 38.7050 -122.2100 358° North 475 547 25,900 1,620 Climbing FlightAware
08:03PM 38.7890 -122.2150 357° North 478 550 27,000 1,680 Climbing FlightAware
08:04PM 38.8700 -122.2190 358° North 482 555 28,000 1,440 Climbing FlightAware
08:05PM 38.9450 -122.2220 358° North 488 562 28,700 1,500 Climbing FlightAware
08:05PM 39.0320 -122.2270 357° North 488 562 29,800 1,620 Climbing FlightAware
08:06PM 39.1030 -122.2300 358° North 489 563 30,600 1,500 Climbing FlightAware
08:06PM 39.1760 -122.2330 358° North 489 563 31,400 1,440 Climbing FlightAware
08:07PM 39.2620 -122.2380 357° North 488 562 32,300 1,440 Climbing FlightAware
08:08PM 39.3390 -122.2420 358° North 486 559 33,200 1,560 Climbing FlightAware
08:08PM 39.4210 -122.2460 358° North 481 554 34,200 1,560 Climbing FlightAware
08:09PM 39.4940 -122.2490 358° North 479 551 35,000 1,320 Climbing FlightAware
08:09PM 39.5750 -122.2530 358° North 480 552 35,700 780 Climbing FlightAware
08:10PM 39.6550 -122.2570 358° North 482 555 36,000 240 Climbing FlightAware
08:10PM 39.7330 -122.2610 358° North 482 555 36,000  Level FlightAware
08:11PM 39.8100 -122.2650 358° North 482 555 36,000  Level FlightAware
08:12PM 39.8900 -122.2690 358° North 482 555 36,000 240 Level FlightAware
08:12PM 39.9720 -122.2730 358° North 481 554 36,300 720 Climbing FlightAware
08:13PM 40.0460 -122.2770 358° North 480 552 36,900 960 Climbing FlightAware
08:13PM 40.1160 -122.2800 358° North 480 552 37,400 780 Climbing FlightAware
08:14PM 40.1950 -122.2840 358° North 483 556 37,800 480 Climbing FlightAware
08:14PM 40.2720 -122.2880 358° North 486 559 38,000 120 Climbing FlightAware
08:15PM 40.3520 -122.2920 358° North 480 552 38,000  Level FlightAware
08:16PM 40.4290 -122.2960 358° North 482 555 38,000  Level FlightAware
08:16PM 40.5110 -122.3000 358° North 483 556 38,000  Level FlightAware
08:17PM 40.5890 -122.3040 358° North 483 556 38,000  Level FlightAware
08:17PM 40.6690 -122.3080 358° North 481 554 38,000  Level FlightAware
08:18PM 40.7480 -122.3120 358° North 486 559 38,000  Level FlightAware
08:19PM 40.8290 -122.3170 357° North 485 558 38,000  Level FlightAware
08:19PM 40.9050 -122.3210 358° North 486 559 38,000  Level FlightAware
08:20PM 40.9850 -122.3250 358° North 486 559 38,000  Level FlightAware
08:20PM 41.0630 -122.3290 358° North 485 558 38,000  Level FlightAware
08:21PM 41.1370 -122.3330 358° North 485 558 38,000  Level FlightAware
08:22PM 41.2200 -122.3370 358° North 485 558 38,000  Level FlightAware
08:22PM 41.3100 -122.3420 358° North 484 557 38,000  Level FlightAware
08:23PM 41.3790 -122.3450 358° North 483 556 38,000  Level FlightAware
08:23PM 41.4610 -122.3500 357° North 483 556 38,000  Level FlightAware
08:24PM 41.5480 -122.3550 358° North 484 557 38,000  Level FlightAware
08:25PM 41.6310 -122.3590 358° North 484 557 38,000  Level FlightAware
08:25PM 41.7130 -122.3630 358° North 484 557 38,000  Level FlightAware
08:26PM 41.7950 -122.3680 357° North 486 559 38,000  Level FlightAware
08:26PM 41.8760 -122.3720 358° North 488 562 38,000  Level FlightAware
08:27PM 41.9700 -122.3760 358° North 491 565 38,000  Level FlightAware
08:28PM 42.0350 -122.3800 357° North 491 565 38,000  Level FlightAware
08:28PM 42.1200 -122.3840 358° North 491 565 38,000  Level FlightAware
08:29PM 42.2010 -122.3890 357° North 494 568 38,000  Level FlightAware
08:29PM 42.2860 -122.3930 358° North 494 568 38,000  Level FlightAware
08:30PM 42.3680 -122.3980 357° North 493 567 38,000  Level FlightAware
08:31PM 42.4470 -122.4020 358° North 494 568 38,000  Level FlightAware
08:31PM 42.5150 -122.4060 358° North 493 567 38,000  Level FlightAware
08:32PM 42.5970 -122.4110 357° North 494 568 38,000  Level FlightAware
08:32PM 42.6900 -122.4160 358° North 492 566 38,000  Level FlightAware
08:33PM 42.7720 -122.4210 357° North 491 565 38,000  Level FlightAware
08:34PM 42.8470 -122.4250 358° North 491 565 38,000  Level FlightAware
08:34PM 42.9240 -122.4290 358° North 491 565 38,000  Level FlightAware
08:35PM 43.0060 -122.4330 358° North 491 565 38,000  Level FlightAware
08:35PM 43.0890 -122.4380 357° North 492 566 38,000  Level FlightAware
08:36PM 43.1690 -122.4420 358° North 491 565 38,000  Level FlightAware
08:37PM 43.2530 -122.4460 358° North 491 565 38,000  Level FlightAware
08:37PM 43.3350 -122.4510 357° North 491 565 38,000  Level FlightAware
08:38PM 43.4120 -122.4560 357° North 491 565 38,000  Level FlightAware
08:38PM 43.4950 -122.4600 358° North 491 565 38,000  Level FlightAware
08:39PM 43.5850 -122.4660 357° North 491 565 38,000  Level FlightAware
08:39PM 43.6590 -122.4700 358° North 491 565 38,000  Level FlightAware
08:40PM 43.7440 -122.4750 358° North 491 565 38,000  Level FlightAware
08:41PM 43.8260 -122.4800 357° North 491 565 38,000  Level FlightAware
08:41PM 43.9030 -122.4840 358° North 491 565 38,000  Level FlightAware
08:42PM 43.9840 -122.4890 357° North 491 565 38,000  Level FlightAware
08:42PM 44.0630 -122.4930 358° North 492 566 38,000  Level FlightAware
08:43PM 44.1430 -122.4980 357° North 494 568 38,000  Level FlightAware
08:44PM 44.2260 -122.5030 358° North 495 570 38,000  Level FlightAware
08:44PM 44.2990 -122.5070 358° North 496 571 38,000  Level FlightAware
08:45PM 44.3840 -122.5120 358° North 497 572 38,000  Level FlightAware
08:45PM 44.4550 -122.5160 358° North 497 572 38,000  Level FlightAware
08:46PM 44.5420 -122.5200 358° North 496 571 38,000  Level FlightAware
08:47PM 44.6250 -122.5250 358° North 484 557 38,000  Level FlightAware
08:47PM 44.7040 -122.5300 357° North 482 555 38,000  Level FlightAware
08:48PM 44.7750 -122.5340 358° North 481 554 38,000  Level FlightAware
08:48PM 44.8540 -122.5390 357° North 480 552 38,000  Level FlightAware
08:49PM 44.9350 -122.5440 357° North 475 547 38,000  Level FlightAware
08:49PM 44.9824 -122.5470 357° North 473 544 38,000  Level FlightAware ADS-B
08:50PM 45.0535 -122.5510 358° North 472 543 38,000  Level FlightAware ADS-B
08:50PM 45.1205 -122.5550 358° North 470 541 38,000  Level FlightAware ADS-B
08:51PM 45.1881 -122.5590 358° North 468 539 38,000  Level FlightAware ADS-B
08:51PM 45.2596 -122.5630 358° North 467 537 38,000  Level FlightAware ADS-B
08:52PM 45.3318 -122.5670 358° North 467 537 38,000  Level FlightAware ADS-B
08:53PM 45.4124 -122.5720 358° North 467 537 38,000  Level FlightAware ADS-B
08:53PM 45.4846 -122.5760 358° North 468 539 38,000 -900 Level FlightAware ADS-B
08:54PM 45.5484 -122.5800 357° North 468 539 37,100 -2,100 Descending FlightAware ADS-B
08:54PM 45.6138 -122.5840 358° North 457 526 35,900 -2,520 Descending FlightAware ADS-B
08:55PM 45.6789 -122.5880 358° North 460 529 34,500 -2,820 Descending FlightAware ADS-B
08:55PM 45.7311 -122.5910 358° North 462 532 33,300 -2,880 Descending FlightAware ADS-B
08:55PM 45.7680 -122.5970 354° North 460 529 32,500 -2,940 Descending FlightAware ADS-B
08:56PM 45.8313 -122.6130 350° North 462 532 31,000 -2,580 Descending FlightAware ADS-B
08:56PM 45.8946 -122.6280 351° North 454 522 29,900 -2,220 Descending FlightAware ADS-B
08:57PM 45.9571 -122.6430 351° North 447 514 28,800 -2,220 Descending FlightAware ADS-B
08:57PM 46.0186 -122.6590 350° North 438 504 27,700 -2,100 Descending FlightAware ADS-B
08:58PM 46.0788 -122.6740 350° North 429 494 26,700 -2,100 Descending FlightAware ADS-B
08:58PM 46.1373 -122.6870 351° North 423 487 25,600 -2,400 Descending FlightAware ADS-B
08:59PM 46.1955 -122.6980 353° North 422 486 24,300 -2,100 Descending FlightAware ADS-B
08:59PM 46.2530 -122.7090 352° North 406 467 23,500 -2,700 Descending FlightAware ADS-B
09:00PM 46.2887 -122.7160 352° North 419 482 22,100 -4,620 Descending FlightAware ADS-B
09:00PM 46.3104 -122.7180 356° North 432 497 21,200 -4,500 Descending FlightAware ADS-B
09:00PM 46.3204 -122.7180 360° North 435 501 20,900 -1,920 Descending FlightAware ADS-B
09:00PM 46.3550 -122.7140 North 425 489 20,500 -1,260 Descending FlightAware ADS-B
09:01PM 46.4112 -122.7010 North 399 459 19,900 -1,500 Descending FlightAware ADS-B
09:01PM 46.4653 -122.6870 10° North 386 444 19,000 -2,100 Descending FlightAware ADS-B
09:02PM 46.5178 -122.6740 10° North 379 436 17,800 -2,580 Descending FlightAware ADS-B
09:02PM 46.5697 -122.6600 11° North 380 437 16,400 -2,760 Descending FlightAware ADS-B
09:03PM 46.6170 -122.6480 10° North 374 430 15,200 -2,520 Descending FlightAware ADS-B
09:03PM 46.6688 -122.6350 10° North 364 419 14,000 -2,280 Descending FlightAware ADS-B
09:04PM 46.7126 -122.6240 10° North 357 411 13,000 -2,040 Descending FlightAware ADS-B
09:04PM 46.7606 -122.6110 11° North 347 399 12,100 -1,620 Descending FlightAware ADS-B
09:05PM 46.8078 -122.5980 11° North 335 386 11,400 -1,020 Descending FlightAware ADS-B
09:05PM 46.8521 -122.5870 10° North 310 357 11,100 -540 Descending FlightAware ADS-B
09:06PM 46.8929 -122.5780 North 286 329 10,900 -540 Descending FlightAware ADS-B
09:06PM 46.8995 -122.5760 12° North 283 326 10,800 -600 Descending FlightAware ADS-B
09:06PM 46.9046 -122.5740 15° North 281 323 10,800 -720 Level FlightAware ADS-B
09:06PM 46.9106 -122.5700 24° Northeast 278 320 10,700 -600 Descending FlightAware ADS-B
09:06PM 46.9172 -122.5650 27° Northeast 274 315 10,700  Level FlightAware ADS-B
09:06PM 46.9241 -122.5590 31° Northeast 271 312 10,700 -600 Level FlightAware ADS-B
09:06PM 46.9283 -122.5540 39° Northeast 267 307 10,600 -900 Descending FlightAware ADS-B
09:07PM 46.9548 -122.5190 42° Northeast 252 290 10,200 -1,080 Descending FlightAware ADS-B
09:07PM 46.9680 -122.5020 41° Northeast 251 289 9,800 -1,560 Descending FlightAware ADS-B
09:07PM 46.9810 -122.4850 42° Northeast 251 289 9,400 -1,440 Descending FlightAware ADS-B
09:07PM 46.9938 -122.4680 42° Northeast 250 288 9,100 -1,380 Descending FlightAware ADS-B
09:08PM 47.0040 -122.4540 43° Northeast 248 285 8,800 -1,500 Descending FlightAware ADS-B
09:08PM 47.0082 -122.4490 39° Northeast 247 284 8,700 -1,380 Descending FlightAware ADS-B
09:08PM 47.0125 -122.4440 38° Northeast 246 283 8,600 -1,500 Descending FlightAware ADS-B
09:08PM 47.0265 -122.4300 34° Northeast 244 281 8,200 -1,380 Descending FlightAware ADS-B
09:08PM 47.0325 -122.4240 34° Northeast 244 281 8,100 -1,020 Descending FlightAware ADS-B
09:08PM 47.0374 -122.4190 35° Northeast 244 281 8,000 -1,500 Descending FlightAware ADS-B
09:08PM 47.0522 -122.4070 29° Northeast 244 281 7,600 -1,620 Descending FlightAware ADS-B
09:09PM 47.0674 -122.3950 28° Northeast 243 280 7,200 -1,500 Descending FlightAware ADS-B
09:09PM 47.0763 -122.3880 28° Northeast 242 278 7,000 -1,200 Descending FlightAware ADS-B
09:09PM 47.0912 -122.3760 29° Northeast 239 275 6,700 -1,320 Descending FlightAware ADS-B
09:09PM 47.1026 -122.3660 31° Northeast 237 273 6,400 -1,380 Descending FlightAware ADS-B
09:10PM 47.1167 -122.3540 30° Northeast 238 274 6,100 -1,440 Descending FlightAware ADS-B
09:10PM 47.1314 -122.3410 31° Northeast 237 273 5,700 -1,380 Descending FlightAware ADS-B
09:10PM 47.1462 -122.3290 29° Northeast 234 269 5,400 -1,200 Descending FlightAware ADS-B
09:10PM 47.1603 -122.3170 30° Northeast 226 260 5,100 -960 Descending FlightAware ADS-B
09:10PM 47.1644 -122.3140 26° Northeast 222 255 5,100 -780 Level FlightAware ADS-B
09:10PM 47.1675 -122.3120 24° Northeast 220 253 5,000 -1,740 Descending FlightAware ADS-B
09:11PM 47.1711 -122.3110 11° North 217 250 4,900 -900 Descending FlightAware ADS-B
09:11PM 47.1749 -122.3100 10° North 215 247 4,900 -780 Level FlightAware ADS-B
09:11PM 47.1791 -122.3090 North 213 245 4,800 -900 Descending FlightAware ADS-B
09:11PM 47.1880 -122.3090 360° North 208 239 4,700 -960 Descending FlightAware ADS-B
09:11PM 47.1973 -122.3090 360° North 203 234 4,500 -960 Descending FlightAware ADS-B
09:11PM 47.2115 -122.3090 360° North 198 228 4,300 -900 Descending FlightAware ADS-B
09:11PM 47.2228 -122.3090 360° North 194 223 4,100 -900 Descending FlightAware ADS-B
09:12PM 47.2366 -122.3090 360° North 196 226 3,900 -1,020 Descending FlightAware ADS-B
09:12PM 47.2501 -122.3100 357° North 201 231 3,600 -1,200 Descending FlightAware ADS-B
09:12PM 47.2606 -122.3100 360° North 202 232 3,400 -1,140 Descending FlightAware ADS-B
09:12PM 47.2746 -122.3100 360° North 202 232 3,100 -1,140 Descending FlightAware ADS-B
09:13PM 47.2855 -122.3100 360° North 200 230 2,900 -900 Descending FlightAware ADS-B
09:13PM 47.2932 -122.3090 North 197 227 2,800 -1,020 Descending FlightAware ADS-B
09:13PM 47.3070 -122.3090 360° North 196 226 2,500 -960 Descending FlightAware ADS-B
09:13PM 47.3175 -122.3090 360° North 194 223 2,400 -900 Descending FlightAware ADS-B
09:13PM 47.3256 -122.3090 360° North 190 219 2,200 -1,080 Descending FlightAware ADS-B
09:13PM 47.3318 -122.3090 360° North 185 213 2,100 -900 Descending FlightAware ADS-B
09:14PM 47.3379 -122.3090 360° North 177 204 2,000 -960 Descending FlightAware ADS-B
09:14PM 47.3470 -122.3090 360° North 169 194 1,800 -960 Descending FlightAware ADS-B
09:14PM 47.3573 -122.3090 360° North 155 178 1,600 -900 Descending FlightAware ADS-B
09:14PM 47.3628 -122.3090 360° North 151 174 1,500 -720 Descending FlightAware ADS-B
09:14PM 47.3692 -122.3080 North 149 171 1,400 -720 Descending FlightAware ADS-B
09:14PM 47.3754 -122.3080 360° North 149 171 1,300 -720 Descending FlightAware ADS-B
09:15PM 47.3809 -122.3080 360° North 149 171 1,200 -600 Descending FlightAware ADS-B
09:15PM 47.3829 -122.3080 360° North 150 173 1,200 -600 Level FlightAware ADS-B
09:15PM 47.3884 -122.3080 360° North 153 176 1,100 -780 Descending FlightAware ADS-B
09:15PM 47.3995 -122.3080 360° North 156 180 900 -840 Descending FlightAware ADS-B
09:15PM 47.4095 -122.3080 360° North 156 180 700 -720 Descending FlightAware ADS-B
09:15PM 47.4180 -122.3080 360° North 158 182 600 -900 Descending FlightAware ADS-B
09:15PM 47.4203 -122.3080 360° North 158 182 500 -720 Descending FlightAware ADS-B
09:16PM 47.4242 -122.3080 360° North 157 181 500 -120 Level FlightAware ADS-B
09:16PM 47.4550 -122.3092 360° North 156 180 400 -120 Descending Seattle Center